sensor_id;sensor_type;location;lat;lon;timestamp;pressure;altitude;pressure_sealevel;temperature;humidity
10948;BME280;5526;42.070;24.752;2023-04-22T00:01:05;98718.44;;;12.77;100.00
10948;BME280;5526;42.070;24.752;2023-04-22T00:03:32;98705.22;;;12.77;100.00
10948;BME280;5526;42.070;24.752;2023-04-22T00:06:01;98704.19;;;12.78;100.00
10948;BME280;5526;42.070;24.752;2023-04-22T00:08:28;98706.34;;;12.71;100.00
10948;BME280;5526;42.070;24.752;2023-04-22T00:10:55;98709.06;;;12.56;100.00
10948;BME280;5526;42.070;24.752;2023-04-22T00:13:22;98704.78;;;12.65;100.00
10948;BME280;5526;42.070;24.752;2023-04-22T00:15:50;98707.69;;;12.68;100.00
10948;BME280;5526;42.070;24.752;2023-04-22T00:18:17;98706.88;;;12.68;100.00
10948;BME280;5526;42.070;24.752;2023-04-22T00:20:44;98712.97;;;12.68;100.00
10948;BME280;5526;42.070;24.752;2023-04-22T00:23:14;98714.75;;;12.73;100.00
10948;BME280;5526;42.070;24.752;2023-04-22T00:25:41;98715.25;;;12.80;100.00
10948;BME280;5526;42.070;24.752;2023-04-22T00:28:08;98703.84;;;12.89;100.00
10948;BME280;5526;42.070;24.752;2023-04-22T00:30:35;98707.72;;;12.97;100.00
10948;BME280;5526;42.070;24.752;2023-04-22T00:33:03;98706.16;;;13.01;100.00
10948;BME280;5526;42.070;24.752;2023-04-22T00:35:30;98701.63;;;13.07;100.00
10948;BME280;5526;42.070;24.752;2023-04-22T00:37:57;98703.66;;;13.15;100.00
10948;BME280;5526;42.070;24.752;2023-04-22T00:40:26;98705.25;;;13.16;100.00
10948;BME280;5526;42.070;24.752;2023-04-22T00:42:54;98704.41;;;13.20;100.00
10948;BME280;5526;42.070;24.752;2023-04-22T00:45:21;98697.06;;;13.17;100.00
10948;BME280;5526;42.070;24.752;2023-04-22T00:47:49;98702.69;;;13.06;100.00
10948;BME280;5526;42.070;24.752;2023-04-22T00:50:16;98700.09;;;12.95;100.00
10948;BME280;5526;42.070;24.752;2023-04-22T00:52:43;98702.44;;;12.97;100.00
10948;BME280;5526;42.070;24.752;2023-04-22T00:55:12;98701.94;;;13.00;100.00
10948;BME280;5526;42.070;24.752;2023-04-22T00:57:41;98706.44;;;13.00;100.00
10948;BME280;5526;42.070;24.752;2023-04-22T01:00:09;98709.34;;;12.98;100.00
10948;BME280;5526;42.070;24.752;2023-04-22T01:02:37;98703.53;;;12.96;100.00
10948;BME280;5526;42.070;24.752;2023-04-22T01:05:05;98709.34;;;12.93;100.00
10948;BME280;5526;42.070;24.752;2023-04-22T01:07:34;98713.84;;;12.98;100.00
10948;BME280;5526;42.070;24.752;2023-04-22T01:10:01;98713.31;;;12.95;100.00
10948;BME280;5526;42.070;24.752;2023-04-22T01:12:28;98717.78;;;12.95;100.00
10948;BME280;5526;42.070;24.752;2023-04-22T01:14:57;98719.13;;;12.98;100.00
10948;BME280;5526;42.070;24.752;2023-04-22T01:17:24;98722.56;;;12.98;100.00
10948;BME280;5526;42.070;24.752;2023-04-22T01:19:52;98721.22;;;13.01;100.00
10948;BME280;5526;42.070;24.752;2023-04-22T01:22:20;98719.88;;;13.03;100.00
10948;BME280;5526;42.070;24.752;2023-04-22T01:24:50;98723.56;;;13.07;100.00
10948;BME280;5526;42.070;24.752;2023-04-22T01:27:17;98721.94;;;13.11;100.00
10948;BME280;5526;42.070;24.752;2023-04-22T01:29:45;98721.13;;;13.11;100.00
10948;BME280;5526;42.070;24.752;2023-04-22T01:32:12;98725.88;;;13.14;100.00
10948;BME280;5526;42.070;24.752;2023-04-22T01:34:40;98715.31;;;13.14;100.00
10948;BME280;5526;42.070;24.752;2023-04-22T01:37:07;98715.78;;;13.21;100.00
10948;BME280;5526;42.070;24.752;2023-04-22T01:39:34;98717.41;;;13.17;100.00
10948;BME280;5526;42.070;24.752;2023-04-22T01:42:03;98722.47;;;13.13;100.00
10948;BME280;5526;42.070;24.752;2023-04-22T01:44:30;98706.66;;;13.03;100.00
10948;BME280;5526;42.070;24.752;2023-04-22T01:46:58;98716.72;;;13.01;100.00
10948;BME280;5526;42.070;24.752;2023-04-22T01:49:25;98717.00;;;13.00;100.00
10948;BME280;5526;42.070;24.752;2023-04-22T01:51:52;98714.88;;;13.02;100.00
10948;BME280;5526;42.070;24.752;2023-04-22T01:54:20;98711.41;;;13.06;100.00
10948;BME280;5526;42.070;24.752;2023-04-22T01:56:51;98708.22;;;13.09;100.00
10948;BME280;5526;42.070;24.752;2023-04-22T01:59:20;98702.41;;;13.07;100.00
10948;BME280;5526;42.070;24.752;2023-04-22T02:01:47;98698.44;;;13.10;100.00
10948;BME280;5526;42.070;24.752;2023-04-22T02:04:15;98697.94;;;13.08;100.00
10948;BME280;5526;42.070;24.752;2023-04-22T02:06:42;98689.75;;;13.04;100.00
10948;BME280;5526;42.070;24.752;2023-04-22T02:09:09;98682.38;;;12.96;100.00
10948;BME280;5526;42.070;24.752;2023-04-22T02:11:36;98681.06;;;12.98;100.00
10948;BME280;5526;42.070;24.752;2023-04-22T02:14:03;98687.44;;;12.92;100.00
10948;BME280;5526;42.070;24.752;2023-04-22T02:16:32;98685.06;;;12.91;100.00
10948;BME280;5526;42.070;24.752;2023-04-22T02:18:59;98684.38;;;12.80;100.00
10948;BME280;5526;42.070;24.752;2023-04-22T02:21:27;98691.00;;;12.73;100.00
10948;BME280;5526;42.070;24.752;2023-04-22T02:23:56;98685.75;;;12.68;100.00
10948;BME280;5526;42.070;24.752;2023-04-22T02:26:24;98688.97;;;12.60;100.00
10948;BME280;5526;42.070;24.752;2023-04-22T02:28:51;98692.16;;;12.62;100.00
10948;BME280;5526;42.070;24.752;2023-04-22T02:31:18;98690.06;;;12.59;100.00
10948;BME280;5526;42.070;24.752;2023-04-22T02:33:47;98696.94;;;12.55;100.00
10948;BME280;5526;42.070;24.752;2023-04-22T02:36:14;98698.28;;;12.52;100.00
10948;BME280;5526;42.070;24.752;2023-04-22T02:38:41;98694.34;;;12.45;100.00
10948;BME280;5526;42.070;24.752;2023-04-22T02:41:08;98706.31;;;12.27;100.00
10948;BME280;5526;42.070;24.752;2023-04-22T02:43:36;98707.13;;;12.18;100.00
10948;BME280;5526;42.070;24.752;2023-04-22T02:46:03;98702.94;;;12.12;100.00
10948;BME280;5526;42.070;24.752;2023-04-22T02:48:30;98710.34;;;12.10;100.00
10948;BME280;5526;42.070;24.752;2023-04-22T02:50:59;98706.09;;;12.14;100.00
10948;BME280;5526;42.070;24.752;2023-04-22T02:53:26;98708.22;;;12.12;100.00
10948;BME280;5526;42.070;24.752;2023-04-22T02:55:53;98704.00;;;12.11;100.00
10948;BME280;5526;42.070;24.752;2023-04-22T02:58:21;98706.13;;;12.09;100.00
10948;BME280;5526;42.070;24.752;2023-04-22T03:00:48;98709.28;;;12.06;100.00
10948;BME280;5526;42.070;24.752;2023-04-22T03:03:15;98707.19;;;12.03;100.00
10948;BME280;5526;42.070;24.752;2023-04-22T03:05:43;98713.00;;;12.05;100.00
10948;BME280;5526;42.070;24.752;2023-04-22T03:08:12;98711.94;;;12.06;100.00
10948;BME280;5526;42.070;24.752;2023-04-22T03:10:39;98716.44;;;12.05;100.00
10948;BME280;5526;42.070;24.752;2023-04-22T03:13:06;98719.88;;;12.01;100.00
10948;BME280;5526;42.070;24.752;2023-04-22T03:15:33;98715.38;;;11.96;100.00
10948;BME280;5526;42.070;24.752;2023-04-22T03:18:00;98720.66;;;11.96;100.00
10948;BME280;5526;42.070;24.752;2023-04-22T03:20:27;98721.72;;;11.95;100.00
10948;BME280;5526;42.070;24.752;2023-04-22T03:22:55;98719.34;;;11.94;100.00
10948;BME280;5526;42.070;24.752;2023-04-22T03:25:23;98720.41;;;11.93;100.00
10948;BME280;5526;42.070;24.752;2023-04-22T03:27:51;98714.38;;;11.87;100.00
10948;BME280;5526;42.070;24.752;2023-04-22T03:30:18;98714.41;;;11.82;100.00
10948;BME280;5526;42.070;24.752;2023-04-22T03:32:45;98707.81;;;11.80;100.00
10948;BME280;5526;42.070;24.752;2023-04-22T03:35:12;98714.66;;;11.81;100.00
10948;BME280;5526;42.070;24.752;2023-04-22T03:37:40;98715.72;;;11.80;100.00
10948;BME280;5526;42.070;24.752;2023-04-22T03:40:08;98704.13;;;11.76;100.00
10948;BME280;5526;42.070;24.752;2023-04-22T03:42:37;98717.53;;;11.84;100.00
10948;BME280;5526;42.070;24.752;2023-04-22T03:45:05;98707.28;;;11.68;100.00
10948;BME280;5526;42.070;24.752;2023-04-22T03:47:33;98718.63;;;11.73;100.00
10948;BME280;5526;42.070;24.752;2023-04-22T03:50:00;98722.28;;;11.77;100.00
10948;BME280;5526;42.070;24.752;2023-04-22T03:52:27;98728.91;;;11.75;100.00
10948;BME280;5526;42.070;24.752;2023-04-22T03:54:54;98729.94;;;11.79;100.00
10948;BME280;5526;42.070;24.752;2023-04-22T03:57:21;98722.56;;;11.71;100.00
10948;BME280;5526;42.070;24.752;2023-04-22T03:59:50;98739.72;;;11.78;100.00
10948;BME280;5526;42.070;24.752;2023-04-22T04:02:17;98740.22;;;11.80;100.00
10948;BME280;5526;42.070;24.752;2023-04-22T04:04:44;98747.06;;;11.86;100.00
10948;BME280;5526;42.070;24.752;2023-04-22T04:07:12;98755.78;;;11.92;100.00
10948;BME280;5526;42.070;24.752;2023-04-22T04:09:39;98757.88;;;11.90;100.00
10948;BME280;5526;42.070;24.752;2023-04-22T04:12:07;98761.56;;;11.94;100.00
10948;BME280;5526;42.070;24.752;2023-04-22T04:14:34;98762.84;;;11.96;100.00
10948;BME280;5526;42.070;24.752;2023-04-22T04:17:02;98762.88;;;12.01;100.00
10948;BME280;5526;42.070;24.752;2023-04-22T04:19:30;98758.09;;;12.03;100.00
10948;BME280;5526;42.070;24.752;2023-04-22T04:21:57;98762.03;;;12.06;100.00
10948;BME280;5526;42.070;24.752;2023-04-22T04:24:24;98763.09;;;12.10;100.00
10948;BME280;5526;42.070;24.752;2023-04-22T04:26:51;98761.22;;;12.15;100.00
10948;BME280;5526;42.070;24.752;2023-04-22T04:29:19;98764.63;;;12.21;100.00
10948;BME280;5526;42.070;24.752;2023-04-22T04:31:48;98772.00;;;12.29;100.00
10948;BME280;5526;42.070;24.752;2023-04-22T04:34:17;98766.69;;;12.39;100.00
10948;BME280;5526;42.070;24.752;2023-04-22T04:36:44;98776.16;;;12.45;100.00
10948;BME280;5526;42.070;24.752;2023-04-22T04:39:11;98771.38;;;12.52;100.00
10948;BME280;5526;42.070;24.752;2023-04-22T04:41:43;98773.16;;;12.66;100.00
10948;BME280;5526;42.070;24.752;2023-04-22T04:44:10;98775.75;;;12.71;100.00
10948;BME280;5526;42.070;24.752;2023-04-22T04:46:38;98764.13;;;12.77;100.00
10948;BME280;5526;42.070;24.752;2023-04-22T04:49:05;98775.19;;;12.84;100.00
10948;BME280;5526;42.070;24.752;2023-04-22T04:51:35;98768.88;;;12.80;100.00
10948;BME280;5526;42.070;24.752;2023-04-22T04:54:02;98770.16;;;12.83;100.00
10948;BME280;5526;42.070;24.752;2023-04-22T04:56:30;98767.00;;;12.86;100.00
10948;BME280;5526;42.070;24.752;2023-04-22T04:58:57;98772.19;;;13.01;100.00
10948;BME280;5526;42.070;24.752;2023-04-22T05:01:24;98772.47;;;13.00;100.00
10948;BME280;5526;42.070;24.752;2023-04-22T05:03:51;98777.09;;;13.18;100.00
10948;BME280;5526;42.070;24.752;2023-04-22T05:06:19;98772.91;;;13.50;100.00
10948;BME280;5526;42.070;24.752;2023-04-22T05:08:47;98768.84;;;13.58;100.00
10948;BME280;5526;42.070;24.752;2023-04-22T05:11:14;98777.50;;;13.68;100.00
10948;BME280;5526;42.070;24.752;2023-04-22T05:13:42;98778.81;;;13.71;100.00
10948;BME280;5526;42.070;24.752;2023-04-22T05:16:09;98780.22;;;13.58;100.00
10948;BME280;5526;42.070;24.752;2023-04-22T05:18:36;98783.63;;;13.64;100.00
10948;BME280;5526;42.070;24.752;2023-04-22T05:21:04;98787.75;;;13.75;100.00
10948;BME280;5526;42.070;24.752;2023-04-22T05:23:32;98783.63;;;13.64;100.00
10948;BME280;5526;42.070;24.752;2023-04-22T05:26:00;98788.09;;;13.63;100.00
10948;BME280;5526;42.070;24.752;2023-04-22T05:28:27;98787.56;;;13.33;100.00
10948;BME280;5526;42.070;24.752;2023-04-22T05:30:55;98774.72;;;13.21;100.00
10948;BME280;5526;42.070;24.752;2023-04-22T05:33:22;98786.06;;;13.55;100.00
10948;BME280;5526;42.070;24.752;2023-04-22T05:35:49;98798.63;;;13.97;100.00
10948;BME280;5526;42.070;24.752;2023-04-22T05:38:17;98794.97;;;14.21;100.00
10948;BME280;5526;42.070;24.752;2023-04-22T05:40:44;98804.84;;;14.39;100.00
10948;BME280;5526;42.070;24.752;2023-04-22T05:43:12;98803.75;;;14.17;100.00
10948;BME280;5526;42.070;24.752;2023-04-22T05:45:40;98798.13;;;14.47;100.00
10948;BME280;5526;42.070;24.752;2023-04-22T05:48:07;98799.97;;;14.70;100.00
10948;BME280;5526;42.070;24.752;2023-04-22T05:50:35;98812.03;;;14.99;100.00
10948;BME280;5526;42.070;24.752;2023-04-22T05:53:02;98807.53;;;15.00;100.00
10948;BME280;5526;42.070;24.752;2023-04-22T05:55:30;98808.81;;;15.02;100.00
10948;BME280;5526;42.070;24.752;2023-04-22T05:57:57;98794.69;;;15.25;100.00
10948;BME280;5526;42.070;24.752;2023-04-22T06:00:25;98811.16;;;15.59;100.00
10948;BME280;5526;42.070;24.752;2023-04-22T06:02:53;98812.22;;;15.90;100.00
10948;BME280;5526;42.070;24.752;2023-04-22T06:05:20;98801.44;;;16.14;100.00
10948;BME280;5526;42.070;24.752;2023-04-22T06:07:47;98807.25;;;16.29;100.00
10948;BME280;5526;42.070;24.752;2023-04-22T06:10:14;98806.69;;;16.46;100.00
10948;BME280;5526;42.070;24.752;2023-04-22T06:12:42;98811.03;;;16.42;100.00
10948;BME280;5526;42.070;24.752;2023-04-22T06:15:10;98813.56;;;16.60;100.00
10948;BME280;5526;42.070;24.752;2023-04-22T06:17:38;98813.47;;;16.25;100.00
10948;BME280;5526;42.070;24.752;2023-04-22T06:20:07;98813.25;;;16.35;100.00
10948;BME280;5526;42.070;24.752;2023-04-22T06:22:34;98821.19;;;16.53;100.00
10948;BME280;5526;42.070;24.752;2023-04-22T06:25:02;98803.88;;;16.91;100.00
10948;BME280;5526;42.070;24.752;2023-04-22T06:27:29;98811.66;;;17.02;100.00
10948;BME280;5526;42.070;24.752;2023-04-22T06:29:56;98805.53;;;17.01;100.00
10948;BME280;5526;42.070;24.752;2023-04-22T06:32:23;98805.16;;;16.94;100.00
10948;BME280;5526;42.070;24.752;2023-04-22T06:34:52;98806.56;;;16.37;100.00
10948;BME280;5526;42.070;24.752;2023-04-22T06:37:19;98802.03;;;16.38;100.00
10948;BME280;5526;42.070;24.752;2023-04-22T06:39:46;98806.06;;;16.08;100.00
10948;BME280;5526;42.070;24.752;2023-04-22T06:42:14;98804.34;;;16.44;100.00
10948;BME280;5526;42.070;24.752;2023-04-22T06:44:41;98807.66;;;16.63;98.91
10948;BME280;5526;42.070;24.752;2023-04-22T06:47:08;98801.78;;;16.53;100.00
10948;BME280;5526;42.070;24.752;2023-04-22T06:49:35;98793.38;;;16.86;100.00
10948;BME280;5526;42.070;24.752;2023-04-22T06:52:05;98803.84;;;16.56;99.84
10948;BME280;5526;42.070;24.752;2023-04-22T06:54:32;98805.88;;;16.86;98.30
10948;BME280;5526;42.070;24.752;2023-04-22T06:56:59;98801.25;;;16.64;99.63
10948;BME280;5526;42.070;24.752;2023-04-22T06:59:27;98803.22;;;16.72;99.78
10948;BME280;5526;42.070;24.752;2023-04-22T07:01:54;98803.50;;;16.84;99.57
10948;BME280;5526;42.070;24.752;2023-04-22T07:04:21;98804.13;;;17.53;95.96
10948;BME280;5526;42.070;24.752;2023-04-22T07:06:48;98812.56;;;17.99;94.51
10948;BME280;5526;42.070;24.752;2023-04-22T07:09:18;98815.59;;;17.84;93.93
10948;BME280;5526;42.070;24.752;2023-04-22T07:11:45;98813.28;;;18.21;92.39
10948;BME280;5526;42.070;24.752;2023-04-22T07:14:12;98810.72;;;18.08;91.47
10948;BME280;5526;42.070;24.752;2023-04-22T07:16:40;98817.53;;;17.70;92.76
10948;BME280;5526;42.070;24.752;2023-04-22T07:19:07;98810.56;;;18.04;92.06
10948;BME280;5526;42.070;24.752;2023-04-22T07:21:34;98813.22;;;18.35;90.91
10948;BME280;5526;42.070;24.752;2023-04-22T07:24:01;98815.88;;;18.04;91.34
10948;BME280;5526;42.070;24.752;2023-04-22T07:26:30;98808.13;;;17.94;91.84
10948;BME280;5526;42.070;24.752;2023-04-22T07:28:59;98814.47;;;18.07;91.07
10948;BME280;5526;42.070;24.752;2023-04-22T07:31:26;98807.63;;;17.92;92.34
10948;BME280;5526;42.070;24.752;2023-04-22T07:33:53;98813.47;;;17.94;82.45
10948;BME280;5526;42.070;24.752;2023-04-22T07:36:20;98819.38;;;18.52;78.37
10948;BME280;5526;42.070;24.752;2023-04-22T07:38:48;98821.22;;;18.99;76.36
10948;BME280;5526;42.070;24.752;2023-04-22T07:41:15;98818.25;;;19.60;74.44
10948;BME280;5526;42.070;24.752;2023-04-22T07:43:44;98818.84;;;19.91;72.58
10948;BME280;5526;42.070;24.752;2023-04-22T07:46:11;98815.19;;;20.13;71.76
10948;BME280;5526;42.070;24.752;2023-04-22T07:48:39;98818.56;;;20.68;70.56
10948;BME280;5526;42.070;24.752;2023-04-22T07:51:06;98818.34;;;20.81;68.20
10948;BME280;5526;42.070;24.752;2023-04-22T07:53:33;98815.84;;;20.47;68.75
10948;BME280;5526;42.070;24.752;2023-04-22T07:56:01;98827.28;;;20.27;69.23
10948;BME280;5526;42.070;24.752;2023-04-22T07:58:28;98823.91;;;20.39;67.95
10948;BME280;5526;42.070;24.752;2023-04-22T08:00:57;98821.81;;;20.07;67.15
10948;BME280;5526;42.070;24.752;2023-04-22T08:03:24;98818.78;;;20.17;67.46
10948;BME280;5526;42.070;24.752;2023-04-22T08:05:52;98815.69;;;19.98;67.22
10948;BME280;5526;42.070;24.752;2023-04-22T08:08:21;98824.25;;;20.29;66.03
10948;BME280;5526;42.070;24.752;2023-04-22T08:10:48;98816.50;;;20.73;65.59
10948;BME280;5526;42.070;24.752;2023-04-22T08:13:16;98810.47;;;20.85;64.43
10948;BME280;5526;42.070;24.752;2023-04-22T08:15:43;98816.66;;;21.27;64.38
10948;BME280;5526;42.070;24.752;2023-04-22T08:18:12;98818.13;;;21.57;63.05
10948;BME280;5526;42.070;24.752;2023-04-22T08:20:39;98808.84;;;21.75;63.00
10948;BME280;5526;42.070;24.752;2023-04-22T08:23:06;98812.34;;;21.87;61.97
10948;BME280;5526;42.070;24.752;2023-04-22T08:25:34;98804.97;;;21.64;62.26
10948;BME280;5526;42.070;24.752;2023-04-22T08:28:01;98805.50;;;21.57;61.47
10948;BME280;5526;42.070;24.752;2023-04-22T08:30:29;98795.06;;;21.44;61.79
10948;BME280;5526;42.070;24.752;2023-04-22T08:32:56;98800.19;;;20.96;63.36
10948;BME280;5526;42.070;24.752;2023-04-22T08:35:25;98795.66;;;21.29;62.04
10948;BME280;5526;42.070;24.752;2023-04-22T08:37:52;98787.38;;;21.42;60.61
10948;BME280;5526;42.070;24.752;2023-04-22T08:40:19;98790.91;;;21.87;59.39
10948;BME280;5526;42.070;24.752;2023-04-22T08:42:47;98779.75;;;21.97;59.21
10948;BME280;5526;42.070;24.752;2023-04-22T08:45:17;98769.81;;;22.10;58.77
10948;BME280;5526;42.070;24.752;2023-04-22T08:47:44;98775.31;;;22.01;60.02
10948;BME280;5526;42.070;24.752;2023-04-22T08:50:12;98776.66;;;22.43;57.24
10948;BME280;5526;42.070;24.752;2023-04-22T08:52:42;98781.25;;;22.31;56.24
10948;BME280;5526;42.070;24.752;2023-04-22T08:55:10;98766.81;;;21.99;56.80
10948;BME280;5526;42.070;24.752;2023-04-22T08:57:37;98765.25;;;22.10;56.00
10948;BME280;5526;42.070;24.752;2023-04-22T09:00:06;98759.69;;;22.27;56.11
10948;BME280;5526;42.070;24.752;2023-04-22T09:02:36;98757.88;;;22.19;55.48
10948;BME280;5526;42.070;24.752;2023-04-22T09:05:05;98762.81;;;22.17;54.91
10948;BME280;5526;42.070;24.752;2023-04-22T09:07:34;98757.44;;;22.05;56.74
10948;BME280;5526;42.070;24.752;2023-04-22T09:10:04;98752.09;;;22.29;54.69
10948;BME280;5526;42.070;24.752;2023-04-22T09:12:33;98745.59;;;22.06;54.30
10948;BME280;5526;42.070;24.752;2023-04-22T09:15:00;98744.38;;;22.16;53.85
10948;BME280;5526;42.070;24.752;2023-04-22T09:17:30;98750.97;;;22.42;53.17
10948;BME280;5526;42.070;24.752;2023-04-22T09:19:58;98748.28;;;22.42;54.69
10948;BME280;5526;42.070;24.752;2023-04-22T09:22:26;98745.19;;;22.52;53.92
10948;BME280;5526;42.070;24.752;2023-04-22T09:24:54;98741.03;;;22.67;53.39
10948;BME280;5526;42.070;24.752;2023-04-22T09:27:24;98735.78;;;22.58;53.52
10948;BME280;5526;42.070;24.752;2023-04-22T09:29:51;98730.91;;;22.88;53.86
10948;BME280;5526;42.070;24.752;2023-04-22T09:32:19;98733.44;;;22.57;54.48
10948;BME280;5526;42.070;24.752;2023-04-22T09:34:49;98720.75;;;22.81;54.02
10948;BME280;5526;42.070;24.752;2023-04-22T09:37:22;98720.00;;;22.33;53.34
10948;BME280;5526;42.070;24.752;2023-04-22T09:39:50;98720.13;;;22.36;54.22
10948;BME280;5526;42.070;24.752;2023-04-22T09:42:18;98709.84;;;22.62;53.77
10948;BME280;5526;42.070;24.752;2023-04-22T09:44:48;98703.47;;;22.43;52.53
10948;BME280;5526;42.070;24.752;2023-04-22T09:47:17;98705.00;;;22.80;49.90
10948;BME280;5526;42.070;24.752;2023-04-22T09:49:46;98701.53;;;23.07;51.91
10948;BME280;5526;42.070;24.752;2023-04-22T09:52:20;98688.75;;;23.16;51.13
10948;BME280;5526;42.070;24.752;2023-04-22T09:54:50;98695.03;;;22.80;53.01
10948;BME280;5526;42.070;24.752;2023-04-22T09:57:18;98683.81;;;22.63;53.59
10948;BME280;5526;42.070;24.752;2023-04-22T09:59:49;98685.84;;;22.18;55.07
10948;BME280;5526;42.070;24.752;2023-04-22T10:02:17;98678.13;;;21.80;54.72
10948;BME280;5526;42.070;24.752;2023-04-22T10:04:46;98682.72;;;21.92;55.05
10948;BME280;5526;42.070;24.752;2023-04-22T10:07:14;98684.91;;;22.38;54.51
10948;BME280;5526;42.070;24.752;2023-04-22T10:09:42;98683.00;;;22.62;53.49
10948;BME280;5526;42.070;24.752;2023-04-22T10:12:09;98686.91;;;23.04;51.25
10948;BME280;5526;42.070;24.752;2023-04-22T10:14:37;98678.13;;;23.19;50.98
10948;BME280;5526;42.070;24.752;2023-04-22T10:17:06;98683.28;;;23.12;49.67
10948;BME280;5526;42.070;24.752;2023-04-22T10:19:34;98685.88;;;22.81;52.25
10948;BME280;5526;42.070;24.752;2023-04-22T10:22:02;98686.03;;;22.61;52.42
10948;BME280;5526;42.070;24.752;2023-04-22T10:24:34;98684.53;;;22.75;52.76
10948;BME280;5526;42.070;24.752;2023-04-22T10:27:03;98657.44;;;22.53;52.08
10948;BME280;5526;42.070;24.752;2023-04-22T10:29:37;98671.66;;;22.29;53.65
10948;BME280;5526;42.070;24.752;2023-04-22T10:32:22;98670.50;;;22.42;51.65
10948;BME280;5526;42.070;24.752;2023-04-22T10:35:10;98675.19;;;22.45;50.02
10948;BME280;5526;42.070;24.752;2023-04-22T10:37:42;98680.34;;;22.38;48.32
10948;BME280;5526;42.070;24.752;2023-04-22T10:40:13;98682.44;;;22.45;49.90
10948;BME280;5526;42.070;24.752;2023-04-22T10:42:46;98681.00;;;22.59;50.84
10948;BME280;5526;42.070;24.752;2023-04-22T10:45:14;98684.81;;;22.34;51.34
10948;BME280;5526;42.070;24.752;2023-04-22T10:47:43;98681.81;;;22.48;51.87
10948;BME280;5526;42.070;24.752;2023-04-22T10:50:20;98685.50;;;22.07;50.85
10948;BME280;5526;42.070;24.752;2023-04-22T10:52:50;98683.09;;;21.58;51.94
10948;BME280;5526;42.070;24.752;2023-04-22T10:55:18;98691.75;;;21.43;52.56
10948;BME280;5526;42.070;24.752;2023-04-22T10:57:47;98686.81;;;21.33;52.45
10948;BME280;5526;42.070;24.752;2023-04-22T11:00:29;98676.81;;;21.74;51.40
10948;BME280;5526;42.070;24.752;2023-04-22T11:03:16;98677.09;;;22.45;48.24
10948;BME280;5526;42.070;24.752;2023-04-22T11:05:43;98673.03;;;22.75;47.63
10948;BME280;5526;42.070;24.752;2023-04-22T11:08:13;98681.44;;;23.28;45.91
10948;BME280;5526;42.070;24.752;2023-04-22T11:10:42;98684.56;;;22.63;52.53
10948;BME280;5526;42.070;24.752;2023-04-22T11:13:12;98698.03;;;22.03;53.43
10948;BME280;5526;42.070;24.752;2023-04-22T11:15:41;98696.53;;;20.84;55.49
10948;BME280;5526;42.070;24.752;2023-04-22T11:18:21;98700.78;;;20.64;57.48
10948;BME280;5526;42.070;24.752;2023-04-22T11:20:49;98703.25;;;20.49;57.82
10948;BME280;5526;42.070;24.752;2023-04-22T11:23:23;98713.34;;;20.64;58.19
10948;BME280;5526;42.070;24.752;2023-04-22T11:25:54;98709.25;;;20.46;58.72
10948;BME280;5526;42.070;24.752;2023-04-22T11:28:22;98707.03;;;20.19;58.29
10948;BME280;5526;42.070;24.752;2023-04-22T11:30:50;98710.97;;;20.13;57.94
10948;BME280;5526;42.070;24.752;2023-04-22T11:33:19;98720.78;;;19.46;56.59
10948;BME280;5526;42.070;24.752;2023-04-22T11:35:48;98728.19;;;18.98;56.67
10948;BME280;5526;42.070;24.752;2023-04-22T11:38:16;98721.16;;;18.29;56.32
10948;BME280;5526;42.070;24.752;2023-04-22T11:40:44;98739.25;;;18.10;56.95
10948;BME280;5526;42.070;24.752;2023-04-22T11:43:11;98741.16;;;18.09;56.45
10948;BME280;5526;42.070;24.752;2023-04-22T11:45:39;98751.00;;;18.00;55.64
10948;BME280;5526;42.070;24.752;2023-04-22T11:48:08;98751.88;;;17.87;55.84
10948;BME280;5526;42.070;24.752;2023-04-22T11:50:38;98750.47;;;17.90;56.20
10948;BME280;5526;42.070;24.752;2023-04-22T11:53:13;98756.28;;;17.92;54.83
10948;BME280;5526;42.070;24.752;2023-04-22T11:55:40;98763.25;;;17.79;56.04
10948;BME280;5526;42.070;24.752;2023-04-22T11:58:09;98756.84;;;18.11;56.43
10948;BME280;5526;42.070;24.752;2023-04-22T12:00:40;98751.13;;;17.95;57.68
10948;BME280;5526;42.070;24.752;2023-04-22T12:03:12;98767.59;;;18.06;58.09
10948;BME280;5526;42.070;24.752;2023-04-22T12:05:42;98763.16;;;17.93;57.26
10948;BME280;5526;42.070;24.752;2023-04-22T12:08:11;98771.59;;;17.86;58.72
10948;BME280;5526;42.070;24.752;2023-04-22T12:10:40;98769.25;;;17.85;60.44
10948;BME280;5526;42.070;24.752;2023-04-22T12:13:07;98780.09;;;17.66;61.46
10948;BME280;5526;42.070;24.752;2023-04-22T12:15:42;98779.16;;;17.71;62.38
10948;BME280;5526;42.070;24.752;2023-04-22T12:18:09;98786.25;;;17.75;61.65
10948;BME280;5526;42.070;24.752;2023-04-22T12:20:38;98789.88;;;17.35;60.95
10948;BME280;5526;42.070;24.752;2023-04-22T12:23:13;98792.94;;;17.07;61.80
10948;BME280;5526;42.070;24.752;2023-04-22T12:25:41;98806.97;;;17.21;61.20
10948;BME280;5526;42.070;24.752;2023-04-22T12:28:09;98820.78;;;17.09;61.38
10948;BME280;5526;42.070;24.752;2023-04-22T12:30:38;98801.28;;;16.51;62.54
10948;BME280;5526;42.070;24.752;2023-04-22T12:33:05;98805.59;;;16.60;63.10
10948;BME280;5526;42.070;24.752;2023-04-22T12:35:32;98799.66;;;16.90;62.41
10948;BME280;5526;42.070;24.752;2023-04-22T12:38:00;98810.31;;;16.63;63.37
10948;BME280;5526;42.070;24.752;2023-04-22T12:40:29;98822.91;;;16.85;63.04
10948;BME280;5526;42.070;24.752;2023-04-22T12:42:56;98820.34;;;16.93;62.83
10948;BME280;5526;42.070;24.752;2023-04-22T12:45:24;98821.91;;;16.94;62.60
10948;BME280;5526;42.070;24.752;2023-04-22T12:47:51;98830.59;;;16.86;61.98
10948;BME280;5526;42.070;24.752;2023-04-22T12:50:20;98825.41;;;16.68;62.65
10948;BME280;5526;42.070;24.752;2023-04-22T12:52:47;98831.47;;;16.68;63.00
10948;BME280;5526;42.070;24.752;2023-04-22T12:55:14;98833.16;;;16.78;62.81
10948;BME280;5526;42.070;24.752;2023-04-22T12:57:44;98826.03;;;17.01;62.68
10948;BME280;5526;42.070;24.752;2023-04-22T13:00:12;98829.25;;;17.11;62.30